Latest Weather Observations for Cleve Airport

IDS60801

Issued at 7:51 pm CDT Sunday 24 January 2021 (issued every 10 minutes, with the page automatically refreshed every 10 minutes)

About weather observations | Map of weather stations | Latest weather observations for SA | Other Formats
Station Details ID: 018116 Name: CLEVE AERODROME Lat: -33.71 Lon: 136.50 Height: 175.0 m
Data from the previous 72 hours. | See also: Recent months at Cleve Airport
Date/Time
CDT
Temp
°C
App
Temp
°C
Dew
Point
°C
Rel
Hum
%
Delta-T
°C
Wind Press
QNH
hPa
Press
MSL
hPa
Rain since
9am
mm
Dir  Spd
km/h
Gust
km/h
Spd
kts
Gust
kts
24/07:30pm 30.7 28.3 7.2 23 12.9 E 9 13 5 7 1003.5 1002.7 0.0
24/07:00pm 31.1 27.5 8.2 24 12.7 ESE 17 24 9 13 1003.2 1002.4 0.0
24/06:30pm 31.4 27.2 8.4 24 12.9 SSE 20 26 11 14 1003.1 1002.3 0.0
24/06:00pm 33.3 29.2 8.0 21 14.2 SE 19 26 10 14 1002.8 1002.0 0.0
24/05:30pm 34.0 29.1 8.6 21 14.5 SE 24 30 13 16 1003.0 1002.2 0.0
24/05:00pm 34.3 28.5 8.1 20 14.8 SSE 28 39 15 21 1003.0 1002.2 0.0
24/04:30pm 37.0 30.4 7.9 17 16.6 SSE 32 44 17 24 1002.6 1001.8 0.0
24/04:11pm 37.8 32.5 6.7 15 17.4 S 24 50 13 27 1002.5 1001.7 0.0
24/04:00pm 41.1 34.9 2.0 9 20.8 NW 24 37 13 20 1002.9 1002.1 0.0
24/03:30pm 40.9 32.9 1.8 9 20.8 NW 33 56 18 30 1003.0 1002.2 0.0
24/03:00pm 41.5 34.0 3.7 10 20.7 WNW 32 50 17 27 1003.1 1002.3 0.0
24/02:41pm 41.2 33.1 3.5 10 20.5 WNW 35 56 19 30 1003.0 1002.2 0.0
24/02:30pm 41.0 33.2 1.9 9 20.8 NW 32 48 17 26 1003.2 1002.4 0.0
24/02:00pm 42.0 34.5 1.0 8 21.6 NW 30 54 16 29 1003.1 1002.3 0.0
24/01:30pm 42.5 34.4 1.3 8 21.9 NNW 33 52 18 28 1003.4 1002.6 0.0
24/01:06pm 41.3 33.1 0.5 8 21.2 NNW 33 52 18 28 1003.6 1002.8 0.0
24/01:00pm 41.1 32.9 0.3 8 21.2 NNW 33 48 18 26 1003.8 1003.0 0.0
24/12:30pm 41.5 32.6 0.6 8 21.4 NW 37 56 20 30 1004.0 1003.2 0.0
24/12:19pm 40.8 32.2 0.1 8 21.0 NNW 35 54 19 29 1004.2 1003.4 0.0
24/12:00pm 41.0 32.4 0.3 8 21.2 NNW 35 48 19 26 1004.3 1003.5 0.0
24/11:44am 40.7 32.1 0.0 8 21.0 NNW 35 57 19 31 1004.5 1003.8 0.0
24/11:30am 40.3 31.6 -0.3 8 20.8 NNW 35 48 19 26 1004.5 1003.8 0.0
24/11:10am 39.9 31.8 1.1 9 20.2 NNW 33 52 18 28 1004.6 1003.9 0.0
24/11:00am 39.4 31.4 0.7 9 20.0 NNW 32 46 17 25 1004.7 1004.0 0.0
24/10:30am 37.6 29.5 0.8 10 18.9 N 33 44 18 24 1004.9 1004.2 0.0
24/10:00am 36.7 28.5 0.1 10 18.4 N 33 46 18 25 1005.1 1004.4 0.0
24/09:30am 35.2 27.9 0.3 11 17.5 N 28 39 15 21 1005.2 1004.5 0.0
24/09:00am 34.8 27.1 0.0 11 17.4 N 30 43 16 23 1005.1 1004.4 0.0
24/08:30am 33.7 26.3 -0.8 11 16.9 N 28 37 15 20 1005.3 1004.6 0.0
24/08:00am 33.2 25.3 -1.2 11 16.6 N 30 39 16 21 1005.0 1004.3 0.0
24/07:30am 33.0 25.1 -1.4 11 16.6 N 30 39 16 21 1004.7 1004.0 0.0
24/07:00am 32.7 24.6 -0.4 12 16.1 N 32 44 17 24 1004.3 1003.5 0.0
24/06:30am 32.3 24.1 -0.7 12 16.0 NNE 32 41 17 22 1004.1 1003.3 0.0
24/06:00am 32.1 23.9 -0.9 12 15.9 NNE 32 41 17 22 1004.1 1003.3 0.0
24/05:30am 31.5 23.8 -0.2 13 15.4 NNE 30 39 16 21 1003.9 1003.1 0.0
24/05:00am 31.6 23.5 -0.1 13 15.4 NNE 32 39 17 21 1004.0 1003.2 0.0
24/04:30am 32.2 24.0 -0.8 12 16.0 NNE 32 41 17 22 1004.1 1003.3 0.0
24/04:00am 32.8 24.7 -0.3 12 16.2 NNE 32 41 17 22 1004.1 1003.3 0.0
24/03:30am 33.0 24.9 -0.2 12 16.3 NNE 32 41 17 22 1004.2 1003.4 0.0
24/03:00am 32.6 24.5 -0.5 12 16.1 NNE 32 41 17 22 1004.4 1003.6 0.0
24/02:30am 32.0 25.6 1.2 14 15.4 NNE 24 33 13 18 1004.9 1004.2 0.0
24/02:00am 31.6 25.2 0.9 14 15.2 NNE 24 28 13 15 1005.3 1004.6 0.0
24/01:30am 32.0 25.3 -0.9 12 15.9 NNE 24 30 13 16 1005.5 1004.8 0.0
24/01:00am 33.2 25.3 -1.2 11 16.6 NE 30 35 16 19 1005.8 1005.1 0.0
24/12:30am 32.8 24.1 -0.3 12 16.2 NE 35 44 19 24 1005.9 1005.2 0.0
24/12:00am 32.2 24.2 0.3 13 15.7 NE 32 41 17 22 1006.2 1005.4 0.0
 
Date/Time
CDT
Temp
°C
App
Temp
°C
Dew
Point
°C
Rel
Hum
%
Delta-T
°C
Wind Press
QNH
hPa
Press
MSL
hPa
Rain since
9am
mm
Dir  Spd
km/h
Gust
km/h
Spd
kts
Gust
kts
23/11:30pm 31.4 24.6 0.7 14 15.1 ENE 26 35 14 19 1006.5 1005.7 0.0
23/11:00pm 30.6 24.9 2.8 17 14.1 ENE 22 28 12 15 1006.9 1006.1 0.0
23/10:30pm 29.8 24.9 2.1 17 13.8 NE 17 20 9 11 1007.1 1006.3 0.0
23/10:00pm 30.2 24.7 1.6 16 14.2 NE 20 26 11 14 1006.9 1006.1 0.0
23/09:30pm 30.1 24.7 1.5 16 14.2 ENE 19 20 10 11 1006.6 1005.8 0.0
23/09:00pm 31.0 25.3 0.4 14 15.0 ENE 20 28 11 15 1006.5 1005.7 0.0
23/08:30pm 32.3 25.8 0.4 13 15.7 E 24 32 13 17 1006.3 1005.5 0.0
23/08:00pm 34.0 27.4 -0.6 11 16.9 E 24 30 13 16 1006.4 1005.6 0.0
23/07:30pm 35.0 27.3 0.2 11 17.4 E 30 35 16 19 1006.3 1005.5 0.0
23/07:00pm 36.1 28.0 -0.3 10 18.2 ESE 32 39 17 21 1006.0 1005.3 0.0
23/06:30pm 36.7 29.0 0.1 10 18.5 ESE 30 37 16 20 1005.9 1005.2 0.0
23/06:00pm 37.1 29.9 0.4 10 18.7 ESE 28 35 15 19 1006.2 1005.4 0.0
23/05:30pm 37.8 30.6 1.0 10 19.0 ESE 28 35 15 19 1006.3 1005.5 0.0
23/05:00pm 38.5 31.4 1.5 10 19.2 SE 28 35 15 19 1006.3 1005.5 0.0
23/04:30pm 39.1 32.1 1.9 10 19.6 SE 28 41 15 22 1006.3 1005.5 0.0
23/04:00pm 39.1 32.9 1.9 10 19.5 ESE 24 35 13 19 1006.3 1005.5 0.0
23/03:30pm 39.7 33.5 2.4 10 19.9 ESE 24 35 13 19 1006.5 1005.7 0.0
23/03:00pm 38.8 32.8 3.1 11 19.1 SE 24 32 13 17 1006.8 1006.0 0.0
23/02:30pm 38.5 33.0 4.1 12 18.7 SSE 22 32 12 17 1007.2 1006.4 0.0
23/02:00pm 38.6 33.7 5.3 13 18.4 SSE 20 33 11 18 1007.5 1006.7 0.0
23/01:30pm 37.6 31.9 6.6 15 17.4 SSE 26 35 14 19 1007.6 1006.8 0.0
23/01:00pm 38.9 33.7 0.3 9 19.8 N 17 26 9 14 1007.9 1007.1 0.0
23/12:30pm 37.9 34.1 -0.4 9 19.3 WSW 9 15 5 8 1008.3 1007.5 0.0
23/12:00pm 38.4 33.7 -1.6 8 19.9 NNE 13 26 7 14 1008.6 1007.8 0.0
23/11:30am 38.0 31.0 -0.3 9 19.4 N 26 33 14 18 1008.7 1007.9 0.0
23/11:00am 36.5 29.0 -1.4 9 18.6 N 28 39 15 21 1008.9 1008.1 0.0
23/10:30am 35.1 27.4 0.2 11 17.5 N 30 41 16 22 1008.8 1008.0 0.0
23/10:00am 33.6 25.4 -0.9 11 16.8 NNE 32 43 17 23 1009.0 1008.2 0.0
23/09:30am 32.8 25.5 -0.3 12 16.2 NNE 28 35 15 19 1009.1 1008.3 0.0
23/09:00am 31.2 25.1 0.6 14 15.0 NE 22 28 12 15 1009.2 1008.4 0.0
23/08:30am 29.4 23.4 1.0 16 13.9 NE 22 32 12 17 1009.0 1008.2 0.0
23/08:00am 27.9 22.4 0.6 17 13.1 NE 19 28 10 15 1009.1 1008.3 0.0
23/07:30am 25.6 20.8 0.3 19 11.9 ENE 15 22 8 12 1009.0 1008.2 0.0
23/07:00am 23.1 18.2 -0.4 21 10.7 ENE 15 19 8 10 1008.9 1008.1 0.0
23/06:30am 22.9 17.8 0.7 23 10.3 ENE 17 22 9 12 1008.7 1007.9 0.0
23/06:00am 21.0 16.1 -0.3 24 9.5 NE 15 19 8 10 1008.5 1007.7 0.0
23/05:30am 20.7 16.9 -1.1 23 9.6 NE 9 13 5 7 1008.7 1007.9 0.0
23/05:00am 20.0 17.1 1.4 29 8.5 ENE 6 7 3 4 1008.6 1007.8 0.0
23/04:30am 17.2 14.5 3.5 40 6.4 ENE 7 13 4 7 1008.9 1008.1 0.0
23/04:00am 16.1 12.5 5.1 48 5.3 E 13 15 7 8 1009.0 1008.2 0.0
23/03:30am 17.6 14.8 5.2 44 6.0 E 9 13 5 7 1009.1 1008.3 0.0
23/03:00am 17.5 13.9 4.8 43 6.1 E 13 17 7 9 1009.4 1008.6 0.0
23/02:30am 19.4 14.9 4.4 37 7.3 E 17 20 9 11 1009.8 1009.1 0.0
23/02:00am 18.1 14.9 5.3 43 6.3 ENE 11 15 6 8 1010.2 1009.5 0.0
23/01:30am 18.9 15.7 8.3 50 5.5 ENE 15 17 8 9 1010.6 1009.9 0.0
23/01:00am 19.0 16.4 10.6 58 4.6 ENE 15 17 8 9 1010.7 1010.0 0.0
23/12:30am 18.6 15.6 10.7 60 4.3 ENE 17 19 9 10 1011.0 1010.3 0.0
23/12:00am 17.4 14.7 9.1 58 4.4 ENE 13 15 7 8 1011.3 1010.6 0.0
 
Date/Time
CDT
Temp
°C
App
Temp
°C
Dew
Point
°C
Rel
Hum
%
Delta-T
°C
Wind Press
QNH
hPa
Press
MSL
hPa
Rain since
9am
mm
Dir  Spd
km/h
Gust
km/h
Spd
kts
Gust
kts
22/11:30pm 18.5 15.5 9.3 55 4.9 ENE 15 17 8 9 1011.7 1011.0 0.0
22/11:00pm 18.5 16.0 9.8 57 4.6 ENE 13 15 7 8 1011.8 1011.1 0.0
22/10:30pm 19.2 16.5 10.5 57 4.7 E 15 17 8 9 1011.7 1011.0 0.0
22/10:00pm 19.3 17.6 10.0 55 5.0 ENE 9 11 5 6 1011.8 1011.1 0.0
22/09:30pm 20.3 18.0 8.9 48 6.1 E 11 15 6 8 1011.7 1011.0 0.0
22/09:00pm 21.6 18.8 8.5 43 7.0 ESE 13 15 7 8 1011.5 1010.8 0.0
22/08:30pm 23.1 19.0 6.4 34 8.6 ESE 17 22 9 12 1011.3 1010.6 0.0
22/08:00pm 24.5 19.5 4.8 28 10.0 ESE 20 26 11 14 1011.2 1010.5 0.0
22/07:30pm 26.0 21.1 7.1 30 10.1 SE 22 28 12 15 1010.7 1010.0 0.0
22/07:00pm 27.2 22.2 6.6 27 10.9 SE 22 30 12 16 1010.5 1009.8 0.0
22/06:30pm 28.1 22.9 5.6 24 11.8 ESE 22 28 12 15 1010.6 1009.9 0.0
22/06:00pm 28.8 23.1 5.0 22 12.4 SE 24 32 13 17 1010.5 1009.8 0.0
22/05:30pm 28.9 22.3 2.2 18 13.3 SE 26 32 14 17 1010.5 1009.8 0.0
22/05:00pm 29.6 23.6 3.6 19 13.3 ESE 24 33 13 18 1010.4 1009.7 0.0
22/04:30pm 29.7 22.9 2.9 18 13.5 SE 28 33 15 18 1010.7 1010.0 0.0
22/04:00pm 30.1 23.2 2.4 17 13.9 SE 28 35 15 19 1010.7 1010.0 0.0
22/03:30pm 30.9 24.6 1.3 15 14.7 SE 24 35 13 19 1010.7 1010.0 0.0
22/03:00pm 31.2 25.2 3.3 17 14.3 SE 24 33 13 18 1010.9 1010.2 0.0
22/02:30pm 30.1 24.6 4.0 19 13.5 SE 22 30 12 16 1011.2 1010.5 0.0
22/02:00pm 29.6 24.7 4.3 20 13.1 SE 19 32 10 17 1011.6 1010.9 0.0
22/01:30pm 30.1 24.8 6.7 23 12.6 SE 24 35 13 19 1011.9 1011.2 0.0
22/01:00pm 29.5 25.0 6.8 24 12.2 SE 20 32 11 17 1012.2 1011.4 0.0
22/12:30pm 30.2 25.8 7.4 24 12.5 SE 20 28 11 15 1012.2 1011.4 0.0
22/12:00pm 30.4 26.0 7.6 24 12.5 SE 20 28 11 15 1012.2 1011.4 0.0
22/11:30am 28.9 25.6 8.0 27 11.5 SE 15 20 8 11 1012.3 1011.5 0.0
22/11:00am 27.3 22.9 6.7 27 10.9 ESE 19 26 10 14 1012.5 1011.7 0.0
22/10:30am 26.5 23.0 8.9 33 9.7 ESE 17 24 9 13 1012.4 1011.6 0.0
22/10:00am 26.0 22.8 8.5 33 9.5 ESE 15 20 8 11 1012.5 1011.7 0.0
22/09:30am 25.0 22.1 9.7 38 8.5 ESE 15 20 8 11 1012.3 1011.5 0.0
22/09:00am 23.6 21.8 11.0 45 7.1 E 11 13 6 7 1012.2 1011.4 0.0
22/08:30am 22.0 21.2 12.8 56 5.3 ESE 9 11 5 6 1011.9 1011.2 0.0
22/08:00am 20.4 19.8 13.6 65 3.9 ENE 9 11 5 6 1011.8 1011.1 0.0
22/07:30am 18.3 17.3 10.9 62 4.0 NE 7 9 4 5 1011.6 1010.9 0.0
22/07:00am 15.9 13.4 9.6 66 3.3 NE 13 13 7 7 1011.5 1010.8 0.0
22/06:30am 14.0 11.6 5.4 56 4.1 NE 7 11 4 6 1011.4 1010.7 0.0
22/06:00am 15.2 14.5 7.0 58 4.1 CALM 0 4 0 2 1011.1 1010.4 0.0
22/05:30am 14.7 12.3 7.0 60 3.8 NNE 9 9 5 5 1010.8 1010.1 0.0
22/05:00am 14.3 12.3 7.1 62 3.5 NNE 7 9 4 5 1010.9 1010.2 0.0
22/04:30am 15.7 13.9 8.0 60 3.9 N 7 7 4 4 1010.9 1010.2 0.0
22/04:00am 16.2 14.3 7.7 57 4.3 NNW 7 9 4 5 1010.7 1010.0 0.0
22/03:30am 15.4 12.9 6.7 56 4.3 NE 9 11 5 6 1010.7 1010.0 0.0
22/03:00am 16.2 13.7 6.6 53 4.8 E 9 9 5 5 1010.7 1010.0 0.0
22/02:30am 17.6 15.9 8.2 54 4.9 NNE 7 9 4 5 1010.7 1010.0 0.0
22/02:00am 18.1 16.5 8.9 55 4.8 NNE 7 9 4 5 1011.0 1010.3 0.0
22/01:30am 16.9 15.1 9.3 61 4.0 NNE 9 11 5 6 1011.1 1010.4 0.0
22/01:00am 17.2 15.1 8.4 56 4.5 NNE 9 11 5 6 1011.3 1010.6 0.0
22/12:30am 17.7 15.5 9.3 58 4.4 NE 11 13 6 7 1011.5 1010.8 0.0
22/12:00am 18.2 16.9 9.8 58 4.5 NE 7 9 4 5 1011.8 1011.1 0.0
 
Date/Time
CDT
Temp
°C
App
Temp
°C
Dew
Point
°C
Rel
Hum
%
Delta-T
°C
Wind Press
QNH
hPa
Press
MSL
hPa
Rain since
9am
mm
Dir  Spd
km/h
Gust
km/h
Spd
kts
Gust
kts
21/11:30pm 19.4 18.4 10.4 56 4.9 NE 6 7 3 4 1012.1 1011.3 0.0
21/11:00pm 19.1 17.6 10.4 57 4.7 ENE 9 9 5 5 1012.2 1011.4 0.0
21/10:30pm 19.0 16.5 9.8 55 4.9 E 13 15 7 8 1012.3 1011.5 0.0
21/10:00pm 19.3 17.4 9.2 52 5.4 ENE 9 13 5 7 1011.8 1011.1 0.0
21/09:30pm 21.1 19.4 9.7 48 6.2 ESE 9 11 5 6 1011.7 1011.0 0.0
21/09:00pm 22.7 20.6 9.8 44 7.1 ESE 11 15 6 8 1011.6 1010.9 0.0
21/08:30pm 24.2 21.2 9.4 39 8.1 SE 15 17 8 9 1011.5 1010.8 0.0
21/08:00pm 25.5 21.5 8.9 35 9.1 SE 20 26 11 14 1011.1 1010.4 0.0

Other formats

Comma delimited format used in spreadsheet applications
http://www.bom.gov.au/fwo/IDS60801/IDS60801.94662.axf

JavaScript Object Notation format (JSON) in row-major order
http://www.bom.gov.au/fwo/IDS60801/IDS60801.94662.json

Data quality

Most of these data are generated automatically and are frequently updated. Quality checks on data are not normally performed. It is possible for incorrect values to appear. Refer to information at About Latest Weather Observations and please check the disclaimer before using these data.